sensor_id;sensor_type;location;lat;lon;timestamp;pressure;altitude;pressure_sealevel;temperature;humidity
42125;BME280;27787;44.594;11.046;2023-03-18T00:01:04;101399.75;;;7.74;66.79
42125;BME280;27787;44.594;11.046;2023-03-18T00:03:50;101391.56;;;7.63;67.46
42125;BME280;27787;44.594;11.046;2023-03-18T00:06:35;101402.25;;;7.69;68.02
42125;BME280;27787;44.594;11.046;2023-03-18T00:09:21;101397.44;;;7.85;67.17
42125;BME280;27787;44.594;11.046;2023-03-18T00:12:05;101392.81;;;7.76;66.86
42125;BME280;27787;44.594;11.046;2023-03-18T00:14:51;101396.69;;;7.59;67.50
42125;BME280;27787;44.594;11.046;2023-03-18T00:17:34;101387.53;;;7.46;68.46
42125;BME280;27787;44.594;11.046;2023-03-18T00:20:20;101386.38;;;7.36;68.89
42125;BME280;27787;44.594;11.046;2023-03-18T00:23:11;101383.66;;;7.33;69.43
42125;BME280;27787;44.594;11.046;2023-03-18T00:25:56;101395.09;;;7.35;69.31
42125;BME280;27787;44.594;11.046;2023-03-18T00:28:41;101392.38;;;7.32;69.64
42125;BME280;27787;44.594;11.046;2023-03-18T00:31:26;101384.56;;;7.34;70.12
42125;BME280;27787;44.594;11.046;2023-03-18T00:34:11;101389.19;;;7.43;69.49
42125;BME280;27787;44.594;11.046;2023-03-18T00:36:58;101395.38;;;7.45;69.18
42125;BME280;27787;44.594;11.046;2023-03-18T00:39:43;101389.03;;;7.38;69.86
42125;BME280;27787;44.594;11.046;2023-03-18T00:42:29;101386.47;;;7.39;70.02
42125;BME280;27787;44.594;11.046;2023-03-18T00:45:19;101394.63;;;7.49;70.01
42125;BME280;27787;44.594;11.046;2023-03-18T00:48:05;101388.44;;;7.47;69.19
42125;BME280;27787;44.594;11.046;2023-03-18T00:50:50;101384.75;;;7.42;69.40
42125;BME280;27787;44.594;11.046;2023-03-18T00:53:34;101384.69;;;7.38;69.81
42125;BME280;27787;44.594;11.046;2023-03-18T00:56:20;101377.88;;;7.45;69.51
42125;BME280;27787;44.594;11.046;2023-03-18T00:59:06;101380.88;;;7.57;68.63
42125;BME280;27787;44.594;11.046;2023-03-18T01:01:51;101372.59;;;7.74;67.74
42125;BME280;27787;44.594;11.046;2023-03-18T01:04:36;101371.34;;;7.92;66.76
42125;BME280;27787;44.594;11.046;2023-03-18T01:07:22;101369.16;;;8.08;66.10
42125;BME280;27787;44.594;11.046;2023-03-18T01:10:07;101377.69;;;7.99;65.26
42125;BME280;27787;44.594;11.046;2023-03-18T01:12:52;101374.72;;;7.87;66.00
42125;BME280;27787;44.594;11.046;2023-03-18T01:15:36;101369.34;;;7.82;66.23
42125;BME280;27787;44.594;11.046;2023-03-18T01:18:21;101369.19;;;7.78;66.32
42125;BME280;27787;44.594;11.046;2023-03-18T01:21:07;101363.00;;;7.76;66.58
42125;BME280;27787;44.594;11.046;2023-03-18T01:23:56;101356.94;;;7.78;66.80
42125;BME280;27787;44.594;11.046;2023-03-18T01:26:40;101359.56;;;7.78;67.14
42125;BME280;27787;44.594;11.046;2023-03-18T01:29:24;101351.56;;;7.74;67.17
42125;BME280;27787;44.594;11.046;2023-03-18T01:32:09;101352.16;;;7.63;68.06
42125;BME280;27787;44.594;11.046;2023-03-18T01:34:53;101353.53;;;7.51;68.93
42125;BME280;27787;44.594;11.046;2023-03-18T01:37:38;101347.25;;;7.46;69.17
42125;BME280;27787;44.594;11.046;2023-03-18T01:40:27;101345.28;;;7.38;68.48
42125;BME280;27787;44.594;11.046;2023-03-18T01:43:22;101349.31;;;7.27;68.22
42125;BME280;27787;44.594;11.046;2023-03-18T01:46:36;101345.56;;;7.18;69.21
42125;BME280;27787;44.594;11.046;2023-03-18T01:52:19;101342.03;;;7.17;68.74
42125;BME280;27787;44.594;11.046;2023-03-18T01:55:10;101335.00;;;7.16;69.10
42125;BME280;27787;44.594;11.046;2023-03-18T01:57:56;101333.53;;;7.26;69.08
42125;BME280;27787;44.594;11.046;2023-03-18T02:00:48;101320.63;;;7.33;68.25
42125;BME280;27787;44.594;11.046;2023-03-18T02:03:34;101328.31;;;7.27;68.08
42125;BME280;27787;44.594;11.046;2023-03-18T02:06:19;101321.81;;;7.15;68.55
42125;BME280;27787;44.594;11.046;2023-03-18T02:09:12;101322.56;;;7.10;68.44
42125;BME280;27787;44.594;11.046;2023-03-18T02:11:57;101323.16;;;7.02;68.99
42125;BME280;27787;44.594;11.046;2023-03-18T02:14:42;101321.31;;;6.98;69.08
42125;BME280;27787;44.594;11.046;2023-03-18T02:17:30;101313.88;;;6.85;69.43
42125;BME280;27787;44.594;11.046;2023-03-18T02:26:20;101319.69;;;6.47;71.30
42125;BME280;27787;44.594;11.046;2023-03-18T02:29:10;101318.63;;;6.41;71.56
42125;BME280;27787;44.594;11.046;2023-03-18T02:32:05;101312.25;;;6.34;71.72
42125;BME280;27787;44.594;11.046;2023-03-18T02:34:51;101314.84;;;6.33;72.29
42125;BME280;27787;44.594;11.046;2023-03-18T02:37:36;101323.69;;;6.36;72.12
42125;BME280;27787;44.594;11.046;2023-03-18T02:40:36;101311.31;;;6.32;72.03
42125;BME280;27787;44.594;11.046;2023-03-18T02:43:30;101312.06;;;6.28;72.30
42125;BME280;27787;44.594;11.046;2023-03-18T02:49:07;101308.25;;;6.18;72.66
42125;BME280;27787;44.594;11.046;2023-03-18T02:51:52;101313.28;;;6.12;72.91
42125;BME280;27787;44.594;11.046;2023-03-18T02:54:37;101322.84;;;6.12;73.14
42125;BME280;27787;44.594;11.046;2023-03-18T02:57:21;101315.84;;;6.11;73.25
42125;BME280;27787;44.594;11.046;2023-03-18T03:00:07;101317.69;;;6.13;73.18
42125;BME280;27787;44.594;11.046;2023-03-18T03:02:52;101320.31;;;6.13;73.30
42125;BME280;27787;44.594;11.046;2023-03-18T03:05:37;101317.50;;;6.09;73.07
42125;BME280;27787;44.594;11.046;2023-03-18T03:08:22;101314.88;;;6.09;73.00
42125;BME280;27787;44.594;11.046;2023-03-18T03:11:07;101322.69;;;6.07;73.07
42125;BME280;27787;44.594;11.046;2023-03-18T03:13:53;101320.94;;;6.06;72.90
42125;BME280;27787;44.594;11.046;2023-03-18T03:16:38;101321.78;;;6.05;73.13
42125;BME280;27787;44.594;11.046;2023-03-18T03:19:22;101321.66;;;6.02;73.25
42125;BME280;27787;44.594;11.046;2023-03-18T03:22:06;101325.19;;;6.03;73.17
42125;BME280;27787;44.594;11.046;2023-03-18T03:24:50;101328.59;;;6.00;73.06
42125;BME280;27787;44.594;11.046;2023-03-18T03:27:35;101325.88;;;5.99;73.17
42125;BME280;27787;44.594;11.046;2023-03-18T03:30:20;101318.03;;;5.99;73.51
42125;BME280;27787;44.594;11.046;2023-03-18T03:33:06;101319.66;;;5.95;73.53
42125;BME280;27787;44.594;11.046;2023-03-18T03:35:51;101320.44;;;5.93;73.25
42125;BME280;27787;44.594;11.046;2023-03-18T03:38:36;101325.50;;;5.88;73.74
42125;BME280;27787;44.594;11.046;2023-03-18T03:41:21;101327.06;;;5.83;73.73
42125;BME280;27787;44.594;11.046;2023-03-18T03:44:06;101320.81;;;5.79;73.98
42125;BME280;27787;44.594;11.046;2023-03-18T03:46:52;101319.03;;;5.78;74.19
42125;BME280;27787;44.594;11.046;2023-03-18T03:49:39;101316.38;;;5.77;74.31
42125;BME280;27787;44.594;11.046;2023-03-18T03:52:24;101317.22;;;5.76;74.46
42125;BME280;27787;44.594;11.046;2023-03-18T03:55:12;101324.22;;;5.77;74.38
42125;BME280;27787;44.594;11.046;2023-03-18T03:57:56;101315.53;;;5.78;74.34
42125;BME280;27787;44.594;11.046;2023-03-18T04:00:42;101324.31;;;5.80;74.28
42125;BME280;27787;44.594;11.046;2023-03-18T04:03:26;101317.31;;;5.79;74.15
42125;BME280;27787;44.594;11.046;2023-03-18T04:06:12;101313.84;;;5.80;74.43
42125;BME280;27787;44.594;11.046;2023-03-18T04:09:03;101316.53;;;5.81;74.41
42125;BME280;27787;44.594;11.046;2023-03-18T04:11:48;101315.72;;;5.84;74.12
42125;BME280;27787;44.594;11.046;2023-03-18T04:14:33;101313.25;;;5.87;73.91
42125;BME280;27787;44.594;11.046;2023-03-18T04:17:17;101309.59;;;5.83;73.99
42125;BME280;27787;44.594;11.046;2023-03-18T04:20:02;101315.59;;;5.79;73.99
42125;BME280;27787;44.594;11.046;2023-03-18T04:22:49;101317.22;;;5.76;74.24
42125;BME280;27787;44.594;11.046;2023-03-18T04:25:36;101309.41;;;5.77;74.42
42125;BME280;27787;44.594;11.046;2023-03-18T04:28:21;101316.38;;;5.77;74.44
42125;BME280;27787;44.594;11.046;2023-03-18T04:31:05;101321.72;;;5.80;74.25
42125;BME280;27787;44.594;11.046;2023-03-18T04:33:50;101308.66;;;5.81;74.09
42125;BME280;27787;44.594;11.046;2023-03-18T04:36:34;101307.78;;;5.81;74.07
42125;BME280;27787;44.594;11.046;2023-03-18T04:39:19;101314.69;;;5.79;73.86
42125;BME280;27787;44.594;11.046;2023-03-18T04:42:03;101312.81;;;5.75;74.17
42125;BME280;27787;44.594;11.046;2023-03-18T04:44:48;101314.47;;;5.73;74.22
42125;BME280;27787;44.594;11.046;2023-03-18T04:47:33;101316.13;;;5.71;74.34
42125;BME280;27787;44.594;11.046;2023-03-18T04:50:20;101314.34;;;5.70;74.59
42125;BME280;27787;44.594;11.046;2023-03-18T04:53:04;101310.84;;;5.69;74.68
42125;BME280;27787;44.594;11.046;2023-03-18T04:55:49;101305.56;;;5.68;74.57
42125;BME280;27787;44.594;11.046;2023-03-18T04:58:35;101305.50;;;5.66;74.46
42125;BME280;27787;44.594;11.046;2023-03-18T05:01:26;101298.53;;;5.67;74.41
42125;BME280;27787;44.594;11.046;2023-03-18T05:04:11;101301.16;;;5.67;74.45
42125;BME280;27787;44.594;11.046;2023-03-18T05:07:03;101303.72;;;5.65;74.65
42125;BME280;27787;44.594;11.046;2023-03-18T05:09:53;101303.69;;;5.63;74.76
42125;BME280;27787;44.594;11.046;2023-03-18T05:12:39;101298.44;;;5.63;74.64
42125;BME280;27787;44.594;11.046;2023-03-18T05:15:25;101298.44;;;5.63;74.65
42125;BME280;27787;44.594;11.046;2023-03-18T05:18:12;101301.09;;;5.65;74.93
42125;BME280;27787;44.594;11.046;2023-03-18T05:20:58;101302.03;;;5.67;74.54
42125;BME280;27787;44.594;11.046;2023-03-18T05:23:42;101298.59;;;5.68;74.48
42125;BME280;27787;44.594;11.046;2023-03-18T05:26:26;101298.53;;;5.67;74.65
42125;BME280;27787;44.594;11.046;2023-03-18T05:29:11;101299.38;;;5.66;74.51
42125;BME280;27787;44.594;11.046;2023-03-18T05:32:04;101306.28;;;5.63;74.67
42125;BME280;27787;44.594;11.046;2023-03-18T05:34:50;101301.09;;;5.65;74.35
42125;BME280;27787;44.594;11.046;2023-03-18T05:37:34;101297.59;;;5.65;74.48
42125;BME280;27787;44.594;11.046;2023-03-18T05:40:23;101301.91;;;5.62;74.64
42125;BME280;27787;44.594;11.046;2023-03-18T05:43:27;101298.38;;;5.62;74.59
42125;BME280;27787;44.594;11.046;2023-03-18T05:46:14;101293.19;;;5.63;74.63
42125;BME280;27787;44.594;11.046;2023-03-18T05:49:09;101298.53;;;5.67;74.90
42125;BME280;27787;44.594;11.046;2023-03-18T05:52:13;101310.84;;;5.69;74.46
42125;BME280;27787;44.594;11.046;2023-03-18T05:55:03;101303.88;;;5.70;74.48
42125;BME280;27787;44.594;11.046;2023-03-18T05:57:51;101310.94;;;5.72;74.30
42125;BME280;27787;44.594;11.046;2023-03-18T06:00:37;101313.50;;;5.71;74.31
42125;BME280;27787;44.594;11.046;2023-03-18T06:03:21;101315.25;;;5.70;74.94
42125;BME280;27787;44.594;11.046;2023-03-18T06:06:07;101312.22;;;5.83;74.53
42125;BME280;27787;44.594;11.046;2023-03-18T06:08:52;101311.00;;;5.98;73.85
42125;BME280;27787;44.594;11.046;2023-03-18T06:11:36;101312.91;;;6.02;73.52
42125;BME280;27787;44.594;11.046;2023-03-18T06:14:21;101313.00;;;6.05;73.20
42125;BME280;27787;44.594;11.046;2023-03-18T06:17:05;101314.69;;;6.03;73.12
42125;BME280;27787;44.594;11.046;2023-03-18T06:19:49;101312.78;;;5.99;74.00
42125;BME280;27787;44.594;11.046;2023-03-18T06:22:34;101323.28;;;5.99;74.71
42125;BME280;27787;44.594;11.046;2023-03-18T06:25:20;101323.44;;;6.03;74.79
42125;BME280;27787;44.594;11.046;2023-03-18T06:28:06;101317.69;;;6.13;75.14
42125;BME280;27787;44.594;11.046;2023-03-18T06:30:54;101321.53;;;6.25;73.88
42125;BME280;27787;44.594;11.046;2023-03-18T06:33:40;101336.59;;;6.30;73.63
42125;BME280;27787;44.594;11.046;2023-03-18T06:36:26;101332.34;;;6.34;73.52
42125;BME280;27787;44.594;11.046;2023-03-18T06:39:11;101331.50;;;6.35;74.04
42125;BME280;27787;44.594;11.046;2023-03-18T06:41:57;101335.06;;;6.37;73.85
42125;BME280;27787;44.594;11.046;2023-03-18T06:44:48;101335.91;;;6.36;73.77
42125;BME280;27787;44.594;11.046;2023-03-18T06:47:50;101336.75;;;6.35;74.11
42125;BME280;27787;44.594;11.046;2023-03-18T06:50:35;101333.88;;;6.27;74.71
42125;BME280;27787;44.594;11.046;2023-03-18T06:53:24;101333.03;;;6.28;75.43
42125;BME280;27787;44.594;11.046;2023-03-18T06:56:10;101339.41;;;6.36;75.09
42125;BME280;27787;44.594;11.046;2023-03-18T06:59:10;101331.03;;;6.46;74.68
42125;BME280;27787;44.594;11.046;2023-03-18T07:01:56;101335.66;;;6.54;74.51
42125;BME280;27787;44.594;11.046;2023-03-18T07:04:42;101331.38;;;6.57;73.48
42125;BME280;27787;44.594;11.046;2023-03-18T07:07:27;101330.88;;;6.69;72.75
42125;BME280;27787;44.594;11.046;2023-03-18T07:10:22;101340.88;;;6.80;72.01
42125;BME280;27787;44.594;11.046;2023-03-18T07:13:09;101342.75;;;6.85;71.90
42125;BME280;27787;44.594;11.046;2023-03-18T07:15:57;101333.28;;;6.90;71.87
42125;BME280;27787;44.594;11.046;2023-03-18T07:18:42;101341.44;;;6.99;71.34
42125;BME280;27787;44.594;11.046;2023-03-18T07:21:26;101335.59;;;7.07;70.84
42125;BME280;27787;44.594;11.046;2023-03-18T07:24:11;101343.81;;;7.18;70.52
42125;BME280;27787;44.594;11.046;2023-03-18T07:26:55;101353.59;;;7.24;70.15
42125;BME280;27787;44.594;11.046;2023-03-18T07:29:40;101354.56;;;7.27;70.02
42125;BME280;27787;44.594;11.046;2023-03-18T07:32:24;101356.50;;;7.33;70.12
42125;BME280;27787;44.594;11.046;2023-03-18T07:35:09;101349.84;;;7.44;70.36
42125;BME280;27787;44.594;11.046;2023-03-18T07:37:56;101350.41;;;7.64;70.08
42125;BME280;27787;44.594;11.046;2023-03-18T07:40:41;101355.03;;;7.73;69.08
42125;BME280;27787;44.594;11.046;2023-03-18T07:43:25;101360.56;;;7.82;68.86
42125;BME280;27787;44.594;11.046;2023-03-18T07:46:10;101364.34;;;7.93;69.01
42125;BME280;27787;44.594;11.046;2023-03-18T07:48:54;101362.91;;;8.04;69.44
42125;BME280;27787;44.594;11.046;2023-03-18T07:51:39;101371.94;;;8.14;69.34
42125;BME280;27787;44.594;11.046;2023-03-18T07:54:23;101373.22;;;8.28;69.20
42125;BME280;27787;44.594;11.046;2023-03-18T07:57:08;101383.19;;;8.40;68.93
42125;BME280;27787;44.594;11.046;2023-03-18T07:59:53;101384.28;;;8.48;68.99
42125;BME280;27787;44.594;11.046;2023-03-18T08:02:37;101388.78;;;8.52;68.64
42125;BME280;27787;44.594;11.046;2023-03-18T08:05:21;101379.97;;;8.50;68.51
42125;BME280;27787;44.594;11.046;2023-03-18T08:08:06;101383.56;;;8.53;68.84
42125;BME280;27787;44.594;11.046;2023-03-18T08:10:50;101382.88;;;8.61;69.02
42125;BME280;27787;44.594;11.046;2023-03-18T08:13:37;101390.16;;;8.72;68.46
42125;BME280;27787;44.594;11.046;2023-03-18T08:16:22;101392.88;;;8.75;67.54
42125;BME280;27787;44.594;11.046;2023-03-18T08:19:06;101394.78;;;8.81;68.26
42125;BME280;27787;44.594;11.046;2023-03-18T08:21:51;101397.56;;;8.87;68.49
42125;BME280;27787;44.594;11.046;2023-03-18T08:24:35;101389.91;;;8.98;67.51
42125;BME280;27787;44.594;11.046;2023-03-18T08:27:24;101384.00;;;9.08;65.62
42125;BME280;27787;44.594;11.046;2023-03-18T08:30:09;101382.56;;;9.22;65.12
42125;BME280;27787;44.594;11.046;2023-03-18T08:32:54;101383.88;;;9.39;64.34
42125;BME280;27787;44.594;11.046;2023-03-18T08:35:39;101381.53;;;9.53;63.20
42125;BME280;27787;44.594;11.046;2023-03-18T08:38:24;101384.44;;;9.65;60.87
42125;BME280;27787;44.594;11.046;2023-03-18T08:41:09;101394.38;;;9.79;61.36
42125;BME280;27787;44.594;11.046;2023-03-18T08:43:53;101387.63;;;9.93;60.87
42125;BME280;27787;44.594;11.046;2023-03-18T08:46:40;101385.09;;;9.99;58.66
42125;BME280;27787;44.594;11.046;2023-03-18T08:49:24;101389.78;;;10.14;58.95
42125;BME280;27787;44.594;11.046;2023-03-18T08:52:08;101391.44;;;10.09;58.99
42125;BME280;27787;44.594;11.046;2023-03-18T08:54:53;101385.28;;;10.08;59.66
42125;BME280;27787;44.594;11.046;2023-03-18T08:57:37;101384.47;;;10.12;60.37
42125;BME280;27787;44.594;11.046;2023-03-18T09:00:21;101374.88;;;10.16;60.53
42125;BME280;27787;44.594;11.046;2023-03-18T09:03:06;101375.13;;;10.28;59.66
42125;BME280;27787;44.594;11.046;2023-03-18T09:05:51;101375.22;;;10.32;58.56
42125;BME280;27787;44.594;11.046;2023-03-18T09:08:36;101379.72;;;10.40;58.64
42125;BME280;27787;44.594;11.046;2023-03-18T09:11:22;101382.63;;;10.53;58.22
42125;BME280;27787;44.594;11.046;2023-03-18T09:14:07;101370.38;;;10.57;58.75
42125;BME280;27787;44.594;11.046;2023-03-18T09:16:50;101376.63;;;10.62;58.78
42125;BME280;27787;44.594;11.046;2023-03-18T09:19:34;101381.19;;;10.72;58.83
42125;BME280;27787;44.594;11.046;2023-03-18T09:22:20;101377.66;;;10.72;56.96
42125;BME280;27787;44.594;11.046;2023-03-18T09:25:05;101373.38;;;10.80;56.47
42125;BME280;27787;44.594;11.046;2023-03-18T09:27:50;101376.81;;;10.74;56.10
42125;BME280;27787;44.594;11.046;2023-03-18T09:30:34;101373.28;;;10.72;57.31
42125;BME280;27787;44.594;11.046;2023-03-18T09:33:18;101375.88;;;10.71;57.13
42125;BME280;27787;44.594;11.046;2023-03-18T09:36:03;101375.06;;;10.75;57.12
42125;BME280;27787;44.594;11.046;2023-03-18T09:38:48;101371.69;;;10.83;54.70
42125;BME280;27787;44.594;11.046;2023-03-18T09:44:35;101372.69;;;10.91;53.36
42125;BME280;27787;44.594;11.046;2023-03-18T09:47:53;101375.34;;;10.93;54.33
42125;BME280;27787;44.594;11.046;2023-03-18T09:50:50;101371.97;;;11.02;52.73
42125;BME280;27787;44.594;11.046;2023-03-18T09:56:33;101376.56;;;11.13;53.26
42125;BME280;27787;44.594;11.046;2023-03-18T09:59:35;101365.19;;;11.19;53.52
42125;BME280;27787;44.594;11.046;2023-03-18T10:02:35;101368.81;;;11.27;53.83
42125;BME280;27787;44.594;11.046;2023-03-18T10:05:33;101365.34;;;11.31;53.78
42125;BME280;27787;44.594;11.046;2023-03-18T10:17:40;101368.25;;;11.49;53.20
42125;BME280;27787;44.594;11.046;2023-03-18T10:23:46;101363.31;;;11.77;52.89
42125;BME280;27787;44.594;11.046;2023-03-18T10:26:39;101360.75;;;11.80;53.08
42125;BME280;27787;44.594;11.046;2023-03-18T10:29:46;101357.25;;;11.82;52.79
42125;BME280;27787;44.594;11.046;2023-03-18T10:32:43;101351.16;;;11.90;52.00
42125;BME280;27787;44.594;11.046;2023-03-18T10:35:47;101345.00;;;11.92;51.36
42125;BME280;27787;44.594;11.046;2023-03-18T10:38:46;101338.00;;;11.97;51.95
42125;BME280;27787;44.594;11.046;2023-03-18T10:41:33;101346.00;;;12.00;52.26
42125;BME280;27787;44.594;11.046;2023-03-18T10:44:32;101331.91;;;12.03;52.52
42125;BME280;27787;44.594;11.046;2023-03-18T10:47:27;101331.91;;;12.04;52.22
42125;BME280;27787;44.594;11.046;2023-03-18T10:50:49;101338.13;;;12.09;51.34
42125;BME280;27787;44.594;11.046;2023-03-18T10:53:35;101334.66;;;12.14;50.80
42125;BME280;27787;44.594;11.046;2023-03-18T10:56:21;101328.50;;;12.16;50.04
42125;BME280;27787;44.594;11.046;2023-03-18T10:59:14;101332.94;;;12.20;48.71
42125;BME280;27787;44.594;11.046;2023-03-18T11:02:08;101328.56;;;12.22;48.16
42125;BME280;27787;44.594;11.046;2023-03-18T11:08:01;101334.91;;;12.39;46.49
42125;BME280;27787;44.594;11.046;2023-03-18T11:10:47;101333.25;;;12.52;40.59
42125;BME280;27787;44.594;11.046;2023-03-18T11:13:32;101332.38;;;12.52;44.02
42125;BME280;27787;44.594;11.046;2023-03-18T11:16:49;101337.63;;;12.47;44.79
42125;BME280;27787;44.594;11.046;2023-03-18T11:19:44;101332.38;;;12.50;45.55
42125;BME280;27787;44.594;11.046;2023-03-18T11:22:32;101333.28;;;12.57;45.64
42125;BME280;27787;44.594;11.046;2023-03-18T11:25:24;101336.91;;;12.68;44.15
42125;BME280;27787;44.594;11.046;2023-03-18T11:28:22;101336.94;;;12.73;44.07
42125;BME280;27787;44.594;11.046;2023-03-18T11:31:06;101332.50;;;12.70;44.38
42125;BME280;27787;44.594;11.046;2023-03-18T11:33:56;101322.81;;;12.70;45.02
42125;BME280;27787;44.594;11.046;2023-03-18T11:36:41;101332.53;;;12.73;44.46
42125;BME280;27787;44.594;11.046;2023-03-18T11:39:28;101329.97;;;12.82;44.73
42125;BME280;27787;44.594;11.046;2023-03-18T11:42:18;101318.50;;;12.85;44.27
42125;BME280;27787;44.594;11.046;2023-03-18T11:48:13;101315.91;;;12.92;42.56
42125;BME280;27787;44.594;11.046;2023-03-18T12:02:33;101287.66;;;13.00;45.40
42125;BME280;27787;44.594;11.046;2023-03-18T12:05:30;101282.41;;;13.05;45.07
42125;BME280;27787;44.594;11.046;2023-03-18T12:17:48;101256.00;;;13.19;45.39
42125;BME280;27787;44.594;11.046;2023-03-18T12:23:38;101250.78;;;13.33;46.37
42125;BME280;27787;44.594;11.046;2023-03-18T12:51:09;101225.25;;;13.70;46.97
42125;BME280;27787;44.594;11.046;2023-03-18T12:54:02;101226.13;;;13.73;46.90
42125;BME280;27787;44.594;11.046;2023-03-18T12:56:56;101227.03;;;13.81;46.21
42125;BME280;27787;44.594;11.046;2023-03-18T12:59:47;101218.19;;;13.88;45.88
42125;BME280;27787;44.594;11.046;2023-03-18T13:06:04;101209.34;;;13.90;46.61
42125;BME280;27787;44.594;11.046;2023-03-18T13:15:27;101214.66;;;14.12;46.27
42125;BME280;27787;44.594;11.046;2023-03-18T13:18:38;101193.41;;;14.15;45.92
42125;BME280;27787;44.594;11.046;2023-03-18T13:21:29;101191.66;;;14.22;46.24
42125;BME280;27787;44.594;11.046;2023-03-18T13:34:51;101179.22;;;14.41;45.75
42125;BME280;27787;44.594;11.046;2023-03-18T13:43:26;101173.03;;;14.57;45.14
42125;BME280;27787;44.594;11.046;2023-03-18T13:46:23;101169.47;;;14.63;44.91
42125;BME280;27787;44.594;11.046;2023-03-18T13:49:16;101166.81;;;14.67;44.81
42125;BME280;27787;44.594;11.046;2023-03-18T13:52:03;101157.94;;;14.76;45.00
42125;BME280;27787;44.594;11.046;2023-03-18T13:54:48;101154.34;;;14.88;44.47
42125;BME280;27787;44.594;11.046;2023-03-18T13:57:42;101148.97;;;14.94;44.23
42125;BME280;27787;44.594;11.046;2023-03-18T14:00:39;101148.06;;;15.02;43.99
42125;BME280;27787;44.594;11.046;2023-03-18T14:03:52;101148.00;;;15.10;43.81
42125;BME280;27787;44.594;11.046;2023-03-18T14:09:32;101139.16;;;15.14;43.47
42125;BME280;27787;44.594;11.046;2023-03-18T14:17:56;101133.63;;;15.45;43.87
42125;BME280;27787;44.594;11.046;2023-03-18T14:20:41;101135.38;;;15.49;43.61
42125;BME280;27787;44.594;11.046;2023-03-18T14:23:38;101134.44;;;15.62;44.02
42125;BME280;27787;44.594;11.046;2023-03-18T14:26:24;101138.78;;;15.72;43.61
42125;BME280;27787;44.594;11.046;2023-03-18T14:32:01;101138.66;;;15.92;43.59
42125;BME280;27787;44.594;11.046;2023-03-18T14:34:56;101139.44;;;16.03;43.24
42125;BME280;27787;44.594;11.046;2023-03-18T14:40:55;101141.91;;;16.23;42.72
42125;BME280;27787;44.594;11.046;2023-03-18T14:46:49;101134.63;;;16.42;42.06
42125;BME280;27787;44.594;11.046;2023-03-18T14:49:42;101126.53;;;16.48;41.66
42125;BME280;27787;44.594;11.046;2023-03-18T14:52:31;101124.72;;;16.51;41.57
42125;BME280;27787;44.594;11.046;2023-03-18T14:55:29;101120.16;;;16.61;41.34
42125;BME280;27787;44.594;11.046;2023-03-18T14:58:17;101124.56;;;16.70;41.08
42125;BME280;27787;44.594;11.046;2023-03-18T15:01:11;101125.44;;;16.70;40.61
42125;BME280;27787;44.594;11.046;2023-03-18T15:03:55;101125.38;;;16.75;40.75
42125;BME280;27787;44.594;11.046;2023-03-18T15:06:40;101124.41;;;16.82;40.69
42125;BME280;27787;44.594;11.046;2023-03-18T15:09:27;101127.00;;;16.87;40.00
42125;BME280;27787;44.594;11.046;2023-03-18T15:12:18;101128.81;;;16.85;39.75
42125;BME280;27787;44.594;11.046;2023-03-18T15:15:15;101126.94;;;16.93;39.41
42125;BME280;27787;44.594;11.046;2023-03-18T15:20:59;101123.22;;;17.06;38.31
42125;BME280;27787;44.594;11.046;2023-03-18T15:23:57;101116.84;;;17.15;38.65
42125;BME280;27787;44.594;11.046;2023-03-18T15:26:43;101125.59;;;17.26;38.24
42125;BME280;27787;44.594;11.046;2023-03-18T15:29:30;101116.59;;;17.33;37.68
42125;BME280;27787;44.594;11.046;2023-03-18T15:32:24;101106.75;;;17.36;37.24
42125;BME280;27787;44.594;11.046;2023-03-18T15:35:19;101108.44;;;17.42;37.06
42125;BME280;27787;44.594;11.046;2023-03-18T15:41:04;101104.75;;;17.51;36.48
42125;BME280;27787;44.594;11.046;2023-03-18T15:43:50;101112.72;;;17.52;36.46
42125;BME280;27787;44.594;11.046;2023-03-18T15:46:34;101114.38;;;17.61;36.55
42125;BME280;27787;44.594;11.046;2023-03-18T15:49:24;101113.38;;;17.71;36.62
42125;BME280;27787;44.594;11.046;2023-03-18T15:52:12;101111.59;;;17.70;36.34
42125;BME280;27787;44.594;11.046;2023-03-18T15:54:57;101111.53;;;17.75;36.38
42125;BME280;27787;44.594;11.046;2023-03-18T15:57:43;101102.50;;;17.80;36.20
42125;BME280;27787;44.594;11.046;2023-03-18T16:00:28;101105.19;;;17.80;35.98
42125;BME280;27787;44.594;11.046;2023-03-18T16:03:17;101099.97;;;17.74;35.96
42125;BME280;27787;44.594;11.046;2023-03-18T16:06:05;101107.16;;;17.69;36.31
42125;BME280;27787;44.594;11.046;2023-03-18T16:08:49;101108.03;;;17.68;36.63
42125;BME280;27787;44.594;11.046;2023-03-18T16:11:34;101104.41;;;17.75;37.32
42125;BME280;27787;44.594;11.046;2023-03-18T16:14:22;101113.22;;;17.79;37.12
42125;BME280;27787;44.594;11.046;2023-03-18T16:17:15;101112.28;;;17.81;37.02
42125;BME280;27787;44.594;11.046;2023-03-18T16:20:00;101114.22;;;17.73;37.12
42125;BME280;27787;44.594;11.046;2023-03-18T16:22:48;101109.13;;;17.55;37.56
42125;BME280;27787;44.594;11.046;2023-03-18T16:25:32;101111.97;;;17.46;38.21
42125;BME280;27787;44.594;11.046;2023-03-18T16:28:22;101120.97;;;17.37;38.13
42125;BME280;27787;44.594;11.046;2023-03-18T16:31:06;101113.09;;;17.28;38.44
42125;BME280;27787;44.594;11.046;2023-03-18T16:33:51;101116.66;;;17.28;38.87
42125;BME280;27787;44.594;11.046;2023-03-18T16:36:36;101121.97;;;17.30;40.26
42125;BME280;27787;44.594;11.046;2023-03-18T16:39:23;101115.78;;;17.26;40.62
42125;BME280;27787;44.594;11.046;2023-03-18T16:42:08;101124.78;;;17.21;40.55
42125;BME280;27787;44.594;11.046;2023-03-18T16:44:53;101121.31;;;17.14;40.09
42125;BME280;27787;44.594;11.046;2023-03-18T16:47:37;101123.16;;;17.09;40.37